createdAt,value
2018-12-23T00:00:53.098Z,0.00
2018-12-23T00:01:53.092Z,0.00
2018-12-23T00:02:53.079Z,0.00
2018-12-23T00:03:53.064Z,0.00
2018-12-23T00:04:53.054Z,0.00
2018-12-23T00:05:53.042Z,0.00
2018-12-23T00:06:53.031Z,0.00
2018-12-23T00:07:53.020Z,0.00
2018-12-23T00:08:53.012Z,0.00
2018-12-23T00:09:53.003Z,0.00
2018-12-23T00:10:52.987Z,0.00
2018-12-23T00:11:52.976Z,0.00
2018-12-23T00:12:52.966Z,0.00
2018-12-23T00:13:52.956Z,0.00
2018-12-23T00:14:52.944Z,0.00
2018-12-23T00:15:52.932Z,0.00
2018-12-23T00:16:52.921Z,0.00
2018-12-23T00:17:52.910Z,0.00
2018-12-23T00:18:52.900Z,0.00
2018-12-23T00:19:52.888Z,0.00
2018-12-23T00:20:52.879Z,0.00
2018-12-23T00:21:52.871Z,0.00
2018-12-23T00:22:52.854Z,0.00
2018-12-23T00:23:52.846Z,0.00
2018-12-23T00:24:52.833Z,0.00
2018-12-23T00:25:52.831Z,0.00
2018-12-23T00:26:53.520Z,0.00
2018-12-23T00:27:52.800Z,0.00
2018-12-23T00:28:52.792Z,0.00
2018-12-23T00:29:52.779Z,0.00
2018-12-23T00:30:52.765Z,0.00
2018-12-23T00:31:52.757Z,0.00
2018-12-23T00:32:52.745Z,0.00
2018-12-23T00:33:52.734Z,0.00
2018-12-23T00:34:52.725Z,0.00
2018-12-23T00:35:52.711Z,0.00
2018-12-23T00:36:52.702Z,0.00
2018-12-23T00:37:52.693Z,0.00
2018-12-23T00:38:52.678Z,0.00
2018-12-23T00:39:52.668Z,0.00
2018-12-23T00:40:52.658Z,0.00
2018-12-23T00:41:52.647Z,0.00
2018-12-23T00:42:52.634Z,0.00
2018-12-23T00:43:52.623Z,0.00
2018-12-23T00:44:52.617Z,0.00
2018-12-23T00:45:52.605Z,0.00
2018-12-23T00:46:52.589Z,0.00
2018-12-23T00:47:52.581Z,0.00
2018-12-23T00:48:52.572Z,0.00
2018-12-23T00:49:52.557Z,0.00
2018-12-23T00:50:52.551Z,0.00
2018-12-23T00:51:52.534Z,0.00
2018-12-23T00:52:52.524Z,0.00
2018-12-23T00:53:52.514Z,0.00
2018-12-23T00:54:52.504Z,0.00
2018-12-23T00:56:12.140Z,0.00
2018-12-23T00:57:34.037Z,0.00
2018-12-23T00:58:34.021Z,0.00
2018-12-23T01:00:16.060Z,0.00
2018-12-23T01:01:16.040Z,0.00
2018-12-23T01:02:16.029Z,0.00
2018-12-23T01:03:16.018Z,0.00
2018-12-23T01:04:16.006Z,0.00
2018-12-23T01:05:15.995Z,0.00
2018-12-23T01:06:15.989Z,0.00
2018-12-23T01:07:15.974Z,0.00
2018-12-23T01:08:15.961Z,0.00
2018-12-23T01:09:15.953Z,0.00
2018-12-23T01:10:15.941Z,0.00
2018-12-23T01:11:15.928Z,0.00
2018-12-23T01:12:15.918Z,0.00
2018-12-23T01:13:15.907Z,0.00
2018-12-23T01:14:15.896Z,0.00
2018-12-23T01:15:15.884Z,0.00
2018-12-23T01:16:15.873Z,0.00
2018-12-23T01:17:15.866Z,0.00
2018-12-23T01:18:15.850Z,0.00
2018-12-23T01:19:15.841Z,0.00
2018-12-23T01:20:15.830Z,0.00
2018-12-23T01:21:15.818Z,0.00
2018-12-23T01:22:15.807Z,0.00
2018-12-23T01:23:15.898Z,0.00
2018-12-23T01:24:15.789Z,0.00
2018-12-23T01:25:15.774Z,0.00
2018-12-23T01:26:15.762Z,0.00
2018-12-23T01:27:15.753Z,0.00
2018-12-23T01:28:15.739Z,0.00
2018-12-23T01:29:15.729Z,0.00
2018-12-23T01:30:15.717Z,0.00
2018-12-23T01:31:15.706Z,0.00
2018-12-23T01:32:15.695Z,0.00
2018-12-23T01:33:15.684Z,0.00
2018-12-23T01:34:15.673Z,0.00
2018-12-23T01:35:15.661Z,0.00
2018-12-23T01:36:15.650Z,0.00
2018-12-23T01:37:15.638Z,0.00
2018-12-23T01:38:15.629Z,0.00
2018-12-23T01:39:15.617Z,0.00
2018-12-23T01:40:15.679Z,0.00
2018-12-23T01:41:15.597Z,0.00
2018-12-23T01:42:15.582Z,0.00
2018-12-23T01:43:15.572Z,0.00
2018-12-23T01:44:15.565Z,0.00
2018-12-23T01:45:15.549Z,0.00
2018-12-23T01:46:15.539Z,0.00
2018-12-23T01:47:15.527Z,0.00
2018-12-23T01:48:15.516Z,0.00
2018-12-23T01:49:15.505Z,0.00
2018-12-23T01:50:15.497Z,0.00
2018-12-23T01:51:15.485Z,0.00
2018-12-23T01:52:15.471Z,0.00
2018-12-23T01:53:15.461Z,0.00
2018-12-23T01:54:15.449Z,0.00
2018-12-23T01:55:15.439Z,0.00
2018-12-23T01:56:15.427Z,0.00
2018-12-23T01:57:15.416Z,0.00
2018-12-23T01:58:15.408Z,0.00
2018-12-23T01:59:15.415Z,0.00
2018-12-23T02:00:15.383Z,0.00
2018-12-23T02:01:15.373Z,0.00
2018-12-23T02:02:15.361Z,0.00
2018-12-23T02:03:15.349Z,0.00
2018-12-23T02:04:15.341Z,0.00
2018-12-23T02:05:15.329Z,0.00
2018-12-23T02:06:15.317Z,0.00
2018-12-23T02:07:15.305Z,0.00
2018-12-23T02:08:15.393Z,0.00
2018-12-23T02:09:15.282Z,0.00
2018-12-23T02:10:15.271Z,0.00
2018-12-23T02:11:15.260Z,0.00
2018-12-23T02:12:15.252Z,0.00
2018-12-23T02:13:15.238Z,0.00
2018-12-23T02:14:15.226Z,0.00
2018-12-23T02:15:15.215Z,0.00
2018-12-23T02:16:15.205Z,0.00
2018-12-23T02:17:15.194Z,0.00
2018-12-23T02:18:15.185Z,0.00
2018-12-23T02:19:15.171Z,0.00
2018-12-23T02:20:15.159Z,0.00
2018-12-23T02:21:15.148Z,0.00
2018-12-23T02:22:15.138Z,0.00
2018-12-23T02:23:15.133Z,0.00
2018-12-23T02:24:15.115Z,0.00
2018-12-23T02:25:15.107Z,0.00
2018-12-23T02:26:15.093Z,0.00
2018-12-23T02:27:15.082Z,0.00
2018-12-23T02:28:15.070Z,0.00
2018-12-23T02:29:15.059Z,0.00
2018-12-23T02:30:15.048Z,0.00
2018-12-23T02:31:15.038Z,0.00
2018-12-23T02:32:15.039Z,0.00
2018-12-23T02:33:15.015Z,0.00
2018-12-23T02:34:15.004Z,0.00
2018-12-23T02:35:15.003Z,0.00
2018-12-23T02:36:14.985Z,0.00
2018-12-23T02:37:14.970Z,0.00
2018-12-23T02:38:14.959Z,0.00
2018-12-23T02:39:14.947Z,0.00
2018-12-23T02:40:14.936Z,0.00
2018-12-23T02:41:14.932Z,0.00
2018-12-23T02:42:14.915Z,0.00
2018-12-23T02:43:14.904Z,0.00
2018-12-23T02:44:14.929Z,0.00
2018-12-23T02:45:14.886Z,0.00
2018-12-23T02:46:14.882Z,0.00
2018-12-23T02:47:14.860Z,0.00
2018-12-23T02:48:14.851Z,0.00
2018-12-23T02:49:14.835Z,0.00
2018-12-23T02:50:14.825Z,0.00
2018-12-23T02:51:14.815Z,0.00
2018-12-23T02:52:14.804Z,0.00
2018-12-23T02:53:14.791Z,0.00
2018-12-23T02:54:14.781Z,0.00
2018-12-23T02:55:14.771Z,0.00
2018-12-23T02:56:14.758Z,0.00
2018-12-23T02:57:14.746Z,0.00
2018-12-23T02:58:14.736Z,0.00
2018-12-23T02:59:14.724Z,0.00
2018-12-23T03:00:14.714Z,0.00
2018-12-23T03:01:14.703Z,0.00
2018-12-23T03:02:14.691Z,0.00
2018-12-23T03:03:14.687Z,0.00
2018-12-23T03:04:14.810Z,0.00
2018-12-23T03:05:14.659Z,0.00
2018-12-23T03:06:14.650Z,0.00
2018-12-23T03:07:14.637Z,0.00
2018-12-23T03:08:14.624Z,0.00
2018-12-23T03:09:14.613Z,0.00
2018-12-23T03:10:14.603Z,0.00
2018-12-23T03:11:14.591Z,0.00
2018-12-23T03:12:14.581Z,0.00
2018-12-23T03:13:14.568Z,0.00
2018-12-23T03:14:14.560Z,0.00
2018-12-23T03:15:14.546Z,0.00
2018-12-23T03:16:14.535Z,0.00
2018-12-23T03:17:14.524Z,0.00
2018-12-23T03:18:14.513Z,0.00
2018-12-23T03:19:14.501Z,0.00
2018-12-23T03:20:14.492Z,0.00
2018-12-23T03:21:14.479Z,0.00
2018-12-23T03:22:14.469Z,0.00
2018-12-23T03:23:14.456Z,0.00
2018-12-23T03:24:14.445Z,0.00
2018-12-23T03:25:14.436Z,0.00
2018-12-23T03:26:14.424Z,0.00
2018-12-23T03:27:14.413Z,0.00
2018-12-23T03:28:14.403Z,0.00
2018-12-23T03:29:14.390Z,0.00
2018-12-23T03:30:14.379Z,0.00
2018-12-23T03:31:14.369Z,0.00
2018-12-23T03:32:14.367Z,0.00
2018-12-23T03:33:14.346Z,0.00
2018-12-23T03:34:14.334Z,0.00
2018-12-23T03:35:14.323Z,0.00
2018-12-23T03:36:15.269Z,0.00
2018-12-23T03:37:14.300Z,0.00
2018-12-23T03:38:14.290Z,0.00
2018-12-23T03:39:14.279Z,0.00
2018-12-23T03:40:14.267Z,0.00
2018-12-23T03:41:14.257Z,0.00
2018-12-23T03:42:14.247Z,0.00
2018-12-23T03:43:14.234Z,0.00
2018-12-23T03:44:14.222Z,0.00
2018-12-23T03:45:14.211Z,0.00
2018-12-23T03:46:14.199Z,0.00
2018-12-23T03:47:14.190Z,0.00
2018-12-23T03:48:14.177Z,0.00
2018-12-23T03:49:14.167Z,0.00
2018-12-23T03:50:14.155Z,0.00
2018-12-23T03:51:14.143Z,0.00
2018-12-23T03:52:14.135Z,0.00
2018-12-23T03:53:14.122Z,0.00
2018-12-23T03:54:14.112Z,0.00
2018-12-23T03:55:14.099Z,0.00
2018-12-23T03:56:14.088Z,0.00
2018-12-23T03:57:14.081Z,0.00
2018-12-23T03:58:14.066Z,0.00
2018-12-23T03:59:14.095Z,0.00
2018-12-23T04:00:14.046Z,0.00
2018-12-23T04:01:14.033Z,0.00
2018-12-23T04:02:14.022Z,0.00
2018-12-23T04:03:14.012Z,0.00
2018-12-23T04:04:13.999Z,0.00
2018-12-23T04:05:13.988Z,0.00
2018-12-23T04:06:13.978Z,0.00
2018-12-23T04:07:13.966Z,0.00
2018-12-23T04:08:13.955Z,0.00
2018-12-23T04:09:13.945Z,0.00
2018-12-23T04:10:13.933Z,0.00
2018-12-23T04:11:13.922Z,0.00
2018-12-23T04:12:13.910Z,0.00
2018-12-23T04:13:13.900Z,0.00
2018-12-23T04:14:13.887Z,0.00
2018-12-23T04:15:13.880Z,0.00
2018-12-23T04:16:13.866Z,0.00
2018-12-23T04:17:13.854Z,0.00
2018-12-23T04:18:13.843Z,0.00
2018-12-23T04:19:13.832Z,0.00
2018-12-23T04:20:13.822Z,0.00
2018-12-23T04:21:13.810Z,0.00
2018-12-23T04:22:13.798Z,0.00
2018-12-23T04:23:13.788Z,0.00
2018-12-23T04:24:13.780Z,0.00
2018-12-23T04:25:13.766Z,0.00
2018-12-23T04:26:13.835Z,0.00
2018-12-23T04:27:13.745Z,0.00
2018-12-23T04:28:13.732Z,0.00
2018-12-23T04:29:13.738Z,0.00
2018-12-23T04:30:13.711Z,0.00
2018-12-23T04:31:13.706Z,0.00
2018-12-23T04:32:13.688Z,0.00
2018-12-23T04:33:13.677Z,0.00
2018-12-23T04:34:13.665Z,0.00
2018-12-23T04:35:13.656Z,0.00
2018-12-23T04:36:13.643Z,0.00
2018-12-23T04:37:13.634Z,0.00
2018-12-23T04:38:13.621Z,0.00
2018-12-23T04:39:13.609Z,0.00
2018-12-23T04:40:13.600Z,0.00
2018-12-23T04:41:13.590Z,0.00
2018-12-23T04:42:13.576Z,0.00
2018-12-23T04:43:13.567Z,0.00
2018-12-23T04:44:13.652Z,0.00
2018-12-23T04:45:13.543Z,0.00
2018-12-23T04:46:13.532Z,0.00
2018-12-23T04:47:13.523Z,0.00
2018-12-23T04:48:13.510Z,0.00
2018-12-23T04:49:13.498Z,0.00
2018-12-23T04:50:13.548Z,0.00
2018-12-23T04:51:13.476Z,0.00
2018-12-23T04:52:13.465Z,0.00
2018-12-23T04:53:13.454Z,0.00
2018-12-23T04:54:13.444Z,0.00
2018-12-23T04:55:13.433Z,0.00
2018-12-23T04:56:13.433Z,0.00
2018-12-23T04:57:13.420Z,0.00
2018-12-23T04:58:13.399Z,0.00
2018-12-23T04:59:13.387Z,0.00
2018-12-23T05:00:13.376Z,0.00
2018-12-23T05:01:13.366Z,0.00
2018-12-23T05:02:13.354Z,0.00
2018-12-23T05:03:13.344Z,0.00
2018-12-23T05:04:13.331Z,0.00
2018-12-23T05:05:13.320Z,0.00
2018-12-23T05:06:13.310Z,0.00
2018-12-23T05:07:13.298Z,0.00
2018-12-23T05:08:13.288Z,0.00
2018-12-23T05:09:13.285Z,0.00
2018-12-23T05:10:13.266Z,0.00
2018-12-23T05:11:13.257Z,0.00
2018-12-23T05:12:13.243Z,0.00
2018-12-23T05:13:13.231Z,0.00
2018-12-23T05:14:13.221Z,0.00
2018-12-23T05:15:13.209Z,0.00
2018-12-23T05:16:13.198Z,0.00
2018-12-23T05:17:13.188Z,0.00
2018-12-23T05:18:13.177Z,0.00
2018-12-23T05:19:13.170Z,0.00
2018-12-23T05:20:13.154Z,0.00
2018-12-23T05:21:13.143Z,0.00
2018-12-23T05:22:13.132Z,0.00
2018-12-23T05:23:13.124Z,0.00
2018-12-23T05:24:13.109Z,0.00
2018-12-23T05:25:13.099Z,0.00
2018-12-23T05:26:13.087Z,0.00
2018-12-23T05:27:13.076Z,0.00
2018-12-23T05:28:13.067Z,0.00
2018-12-23T05:29:13.064Z,0.00
2018-12-23T05:30:13.043Z,0.00
2018-12-23T05:31:13.034Z,0.00
2018-12-23T05:32:13.021Z,0.00
2018-12-23T05:33:13.012Z,0.00
2018-12-23T05:34:13.005Z,0.00
2018-12-23T05:35:12.987Z,0.00
2018-12-23T05:36:12.977Z,0.00
2018-12-23T05:37:12.964Z,0.00
2018-12-23T05:38:12.960Z,0.00
2018-12-23T05:39:12.946Z,0.00
2018-12-23T05:40:12.931Z,0.00
2018-12-23T05:41:12.920Z,0.00
2018-12-23T05:42:12.912Z,0.00
2018-12-23T05:43:12.899Z,0.00
2018-12-23T05:44:12.887Z,0.00
2018-12-23T05:45:12.994Z,0.00
2018-12-23T05:46:12.866Z,0.00
2018-12-23T05:47:12.852Z,0.00
2018-12-23T05:48:12.840Z,0.00
2018-12-23T05:49:12.831Z,0.00
2018-12-23T05:50:12.820Z,0.00
2018-12-23T05:51:12.809Z,0.00
2018-12-23T05:52:12.797Z,0.00
2018-12-23T05:53:12.789Z,0.00
2018-12-23T05:54:12.776Z,0.00
2018-12-23T05:55:12.764Z,0.00
2018-12-23T05:56:12.752Z,0.00
2018-12-23T05:57:12.742Z,0.00
2018-12-23T05:58:12.757Z,0.00
2018-12-23T05:59:12.719Z,0.00
2018-12-23T06:00:12.708Z,0.00
2018-12-23T06:01:12.698Z,0.00
2018-12-23T06:02:12.687Z,0.00
2018-12-23T06:03:12.675Z,0.00
2018-12-23T06:04:12.663Z,0.00
2018-12-23T06:05:12.660Z,0.00
2018-12-23T06:06:12.641Z,0.00
2018-12-23T06:07:12.631Z,0.00
2018-12-23T06:08:12.619Z,0.00
2018-12-23T06:09:12.610Z,0.00
2018-12-23T06:10:12.597Z,0.00
2018-12-23T06:11:12.587Z,0.00
2018-12-23T06:12:12.575Z,0.00
2018-12-23T06:13:12.564Z,0.00
2018-12-23T06:14:12.552Z,0.00
2018-12-23T06:15:12.541Z,0.00
2018-12-23T06:16:12.532Z,0.00
2018-12-23T06:17:12.519Z,0.00
2018-12-23T06:18:12.508Z,0.00
2018-12-23T06:19:12.497Z,0.00
2018-12-23T06:20:12.485Z,0.00
2018-12-23T06:21:12.474Z,0.00
2018-12-23T06:22:12.463Z,0.00
2018-12-23T06:23:12.452Z,0.00
2018-12-23T06:24:12.443Z,0.00
2018-12-23T06:25:12.430Z,0.00
2018-12-23T06:26:12.419Z,0.00
2018-12-23T06:27:12.407Z,0.00
2018-12-23T06:28:12.396Z,0.00
2018-12-23T06:29:12.384Z,0.00
2018-12-23T06:30:12.375Z,0.00
2018-12-23T06:31:12.363Z,0.00
2018-12-23T06:32:12.351Z,0.00
2018-12-23T06:33:12.342Z,0.00
2018-12-23T06:34:12.330Z,0.00
2018-12-23T06:35:12.317Z,0.00
2018-12-23T06:36:12.314Z,0.00
2018-12-23T06:37:12.296Z,0.00
2018-12-23T06:38:12.288Z,0.00
2018-12-23T06:39:12.273Z,0.00
2018-12-23T06:40:12.262Z,0.00
2018-12-23T06:41:12.251Z,0.00
2018-12-23T06:42:12.241Z,0.00
2018-12-23T06:43:12.228Z,0.00
2018-12-23T06:44:12.218Z,0.00
2018-12-23T06:45:12.208Z,0.00
2018-12-23T06:46:12.195Z,0.00
2018-12-23T06:47:12.212Z,4.00
2018-12-23T06:48:12.174Z,4.00
2018-12-23T06:49:12.161Z,0.00
2018-12-23T06:50:12.151Z,0.00
2018-12-23T06:51:12.141Z,4.00
2018-12-23T06:52:12.131Z,4.00
2018-12-23T06:53:12.118Z,0.00
2018-12-23T06:54:12.106Z,0.00
2018-12-23T06:55:12.095Z,4.00
2018-12-23T06:56:12.085Z,4.00
2018-12-23T06:57:12.073Z,8.00
2018-12-23T06:58:12.062Z,12.00
2018-12-23T06:59:12.050Z,12.00
2018-12-23T07:00:12.041Z,12.00
2018-12-23T07:01:12.028Z,12.00
2018-12-23T07:02:12.017Z,16.00
2018-12-23T07:03:12.006Z,24.00
2018-12-23T07:04:11.995Z,28.00
2018-12-23T07:05:11.984Z,28.00
2018-12-23T07:06:11.973Z,20.00
2018-12-23T07:07:18.553Z,24.00
2018-12-23T07:08:12.948Z,36.00
2018-12-23T07:09:11.939Z,40.00
2018-12-23T07:10:11.927Z,28.00
2018-12-23T07:11:11.917Z,32.00
2018-12-23T07:12:11.910Z,32.00
2018-12-23T07:13:11.895Z,44.00
2018-12-23T07:14:11.885Z,56.00
2018-12-23T07:15:11.872Z,60.00
2018-12-23T07:16:11.862Z,80.00
2018-12-23T07:17:11.850Z,80.00
2018-12-23T07:18:11.840Z,80.00
2018-12-23T07:19:11.827Z,72.00
2018-12-23T07:20:11.819Z,72.00
2018-12-23T07:21:11.806Z,72.00
2018-12-23T07:22:11.794Z,104.00
2018-12-23T07:23:11.783Z,120.00
2018-12-23T07:24:11.773Z,112.00
2018-12-23T07:25:11.762Z,120.00
2018-12-23T07:26:11.751Z,128.00
2018-12-23T07:27:11.739Z,116.00
2018-12-23T07:28:11.728Z,120.00
2018-12-23T07:29:11.717Z,136.00
2018-12-23T07:30:11.707Z,128.00
2018-12-23T07:31:11.694Z,192.00
2018-12-23T07:32:11.684Z,232.00
2018-12-23T07:33:11.673Z,268.00
2018-12-23T07:34:11.661Z,212.00
2018-12-23T07:35:11.651Z,152.00
2018-12-23T07:36:11.639Z,108.00
2018-12-23T07:37:11.632Z,104.00
2018-12-23T07:38:11.618Z,96.00
2018-12-23T07:39:11.604Z,112.00
2018-12-23T07:40:11.596Z,148.00
2018-12-23T07:41:11.583Z,168.00
2018-12-23T07:42:11.572Z,200.00
2018-12-23T07:43:11.560Z,200.00
2018-12-23T07:44:11.549Z,184.00
2018-12-23T07:45:11.540Z,188.00
2018-12-23T07:46:11.526Z,216.00
2018-12-23T07:47:11.519Z,304.00
2018-12-23T07:48:11.506Z,244.00
2018-12-23T07:49:11.492Z,264.00
2018-12-23T07:50:11.485Z,188.00
2018-12-23T07:51:11.471Z,180.00
2018-12-23T07:52:11.459Z,172.00
2018-12-23T07:53:11.447Z,160.00
2018-12-23T07:54:11.437Z,176.00
2018-12-23T07:55:11.425Z,232.00
2018-12-23T07:56:11.414Z,320.00
2018-12-23T07:57:11.407Z,520.00
2018-12-23T07:58:11.392Z,520.00
2018-12-23T07:59:11.407Z,660.00
2018-12-23T08:00:11.370Z,592.00
2018-12-23T08:01:11.358Z,584.00
2018-12-23T08:02:11.347Z,472.00
2018-12-23T08:03:11.336Z,548.00
2018-12-23T08:04:11.327Z,648.00
2018-12-23T08:05:11.313Z,688.00
2018-12-23T08:06:11.303Z,708.00
2018-12-23T08:07:11.291Z,856.00
2018-12-23T08:08:11.281Z,672.00
2018-12-23T08:09:11.268Z,728.00
2018-12-23T08:10:11.257Z,644.00
2018-12-23T08:11:11.246Z,792.00
2018-12-23T08:12:11.235Z,824.00
2018-12-23T08:13:11.225Z,512.00
2018-12-23T08:14:11.212Z,492.00
2018-12-23T08:15:11.202Z,544.00
2018-12-23T08:16:11.193Z,428.00
2018-12-23T08:17:11.179Z,336.00
2018-12-23T08:18:11.168Z,400.00
2018-12-23T08:19:11.157Z,384.00
2018-12-23T08:20:11.145Z,280.00
2018-12-23T08:21:11.135Z,300.00
2018-12-23T08:22:11.123Z,356.00
2018-12-23T08:23:11.210Z,444.00
2018-12-23T08:24:11.099Z,612.00
2018-12-23T08:25:11.089Z,884.00
2018-12-23T08:26:11.077Z,632.00
2018-12-23T08:27:11.067Z,712.00
2018-12-23T08:28:11.173Z,796.00
2018-12-23T08:29:11.043Z,560.00
2018-12-23T08:30:11.033Z,576.00
2018-12-23T08:31:11.025Z,652.00
2018-12-23T08:32:11.011Z,656.00
2018-12-23T08:33:11.000Z,528.00
2018-12-23T08:34:10.987Z,584.00
2018-12-23T08:35:10.976Z,564.00
2018-12-23T08:36:10.965Z,568.00
2018-12-23T08:37:10.955Z,428.00
2018-12-23T08:38:10.946Z,432.00
2018-12-23T08:39:10.931Z,468.00
2018-12-23T08:40:10.920Z,432.00
2018-12-23T08:41:10.910Z,456.00
2018-12-23T08:42:10.899Z,496.00
2018-12-23T08:43:10.888Z,464.00
2018-12-23T08:44:10.876Z,628.00
2018-12-23T08:45:10.865Z,888.00
2018-12-23T08:46:10.854Z,652.00
2018-12-23T08:47:10.843Z,624.00
2018-12-23T08:48:10.832Z,624.00
2018-12-23T08:49:10.823Z,564.00
2018-12-23T08:50:10.810Z,500.00
2018-12-23T08:51:10.798Z,564.00
2018-12-23T08:52:10.788Z,472.00
2018-12-23T08:53:10.776Z,560.00
2018-12-23T08:54:10.764Z,480.00
2018-12-23T08:55:10.755Z,408.00
2018-12-23T08:56:10.745Z,548.00
2018-12-23T08:57:10.736Z,496.00
2018-12-23T08:58:10.719Z,440.00
2018-12-23T08:59:10.708Z,452.00
2018-12-23T09:00:10.697Z,580.00
2018-12-23T09:01:10.685Z,760.00
2018-12-23T09:02:10.674Z,808.00
2018-12-23T09:03:18.631Z,704.00
2018-12-23T09:04:11.652Z,844.00
2018-12-23T09:05:10.641Z,904.00
2018-12-23T09:06:10.646Z,476.00
2018-12-23T09:07:10.621Z,480.00
2018-12-23T09:08:10.607Z,548.00
2018-12-23T09:09:10.596Z,656.00
2018-12-23T09:10:10.585Z,736.00
2018-12-23T09:11:10.573Z,884.00
2018-12-23T09:12:10.568Z,1264.00
2018-12-23T09:13:10.551Z,1704.00
2018-12-23T09:14:10.540Z,1352.00
2018-12-23T09:15:10.531Z,1296.00
2018-12-23T09:16:10.519Z,856.00
2018-12-23T09:17:10.508Z,1100.00
2018-12-23T09:18:10.496Z,764.00
2018-12-23T09:19:10.484Z,812.00
2018-12-23T09:20:10.473Z,1288.00
2018-12-23T09:21:10.461Z,1572.00
2018-12-23T09:22:10.451Z,1584.00
2018-12-23T09:23:10.443Z,1488.00
2018-12-23T09:24:10.431Z,1276.00
2018-12-23T09:25:10.416Z,1076.00
2018-12-23T09:26:10.405Z,1136.00
2018-12-23T09:27:10.394Z,1120.00
2018-12-23T09:28:10.386Z,1648.00
2018-12-23T09:29:10.373Z,1224.00
2018-12-23T09:30:10.361Z,804.00
2018-12-23T09:31:10.350Z,1016.00
2018-12-23T09:32:10.409Z,1140.00
2018-12-23T09:33:10.327Z,1344.00
2018-12-23T09:34:10.316Z,1136.00
2018-12-23T09:35:10.304Z,1204.00
2018-12-23T09:36:10.293Z,1136.00
2018-12-23T09:37:10.286Z,1488.00
2018-12-23T09:38:10.274Z,1780.00
2018-12-23T09:39:10.264Z,2996.00
2018-12-23T09:40:10.249Z,1928.00
2018-12-23T09:41:10.238Z,1428.00
2018-12-23T09:42:10.227Z,1984.00
2018-12-23T09:43:10.214Z,2204.00
2018-12-23T09:44:10.204Z,2332.00
2018-12-23T09:45:10.192Z,2368.00
2018-12-23T09:46:10.182Z,2768.00
2018-12-23T09:47:10.170Z,2208.00
2018-12-23T09:48:10.159Z,2684.00
2018-12-23T09:49:10.147Z,3052.00
2018-12-23T09:50:10.137Z,2236.00
2018-12-23T09:51:10.125Z,3036.00
2018-12-23T09:52:10.115Z,2536.00
2018-12-23T09:53:10.102Z,2668.00
2018-12-23T09:54:10.094Z,2468.00
2018-12-23T09:55:10.080Z,2836.00
2018-12-23T09:56:10.074Z,1708.00
2018-12-23T09:57:10.066Z,2992.00
2018-12-23T09:58:10.047Z,2888.00
2018-12-23T09:59:10.036Z,3796.00
2018-12-23T10:00:10.025Z,3044.00
2018-12-23T10:01:10.014Z,2340.00
2018-12-23T10:02:10.009Z,1956.00
2018-12-23T10:03:09.993Z,1324.00
2018-12-23T10:04:09.980Z,1024.00
2018-12-23T10:05:09.969Z,1464.00
2018-12-23T10:06:09.958Z,1408.00
2018-12-23T10:07:09.947Z,972.00
2018-12-23T10:08:10.541Z,1180.00
2018-12-23T10:09:09.923Z,812.00
2018-12-23T10:10:09.913Z,736.00
2018-12-23T10:11:09.902Z,824.00
2018-12-23T10:12:09.891Z,700.00
2018-12-23T10:13:09.878Z,716.00
2018-12-23T10:14:09.870Z,936.00
2018-12-23T10:15:09.856Z,1296.00
2018-12-23T10:16:09.849Z,1148.00
2018-12-23T10:17:09.835Z,1960.00
2018-12-23T10:18:09.823Z,2492.00
2018-12-23T10:19:09.811Z,2556.00
2018-12-23T10:20:09.803Z,2092.00
2018-12-23T10:21:10.272Z,2580.00
2018-12-23T10:22:09.778Z,2396.00
2018-12-23T10:23:09.768Z,2828.00
2018-12-23T10:24:09.755Z,2588.00
2018-12-23T10:25:09.744Z,3288.00
2018-12-23T10:26:09.733Z,2420.00
2018-12-23T10:27:09.722Z,1892.00
2018-12-23T10:28:09.718Z,2160.00
2018-12-23T10:29:09.699Z,3084.00
2018-12-23T10:30:09.690Z,2416.00
2018-12-23T10:31:09.678Z,1952.00
2018-12-23T10:32:09.669Z,3120.00
2018-12-23T10:33:09.655Z,3112.00
2018-12-23T10:34:09.644Z,2832.00
2018-12-23T10:35:09.633Z,3244.00
2018-12-23T10:36:09.622Z,1904.00
2018-12-23T10:37:09.612Z,2040.00
2018-12-23T10:38:09.599Z,2244.00
2018-12-23T10:39:09.588Z,1780.00
2018-12-23T10:40:09.577Z,1768.00
2018-12-23T10:41:09.566Z,1296.00
2018-12-23T10:42:09.555Z,1696.00
2018-12-23T10:43:09.544Z,2308.00
2018-12-23T10:44:09.531Z,1648.00
2018-12-23T10:45:09.520Z,1704.00
2018-12-23T10:46:09.509Z,1232.00
2018-12-23T10:47:09.499Z,1584.00
2018-12-23T10:48:09.489Z,1520.00
2018-12-23T10:49:09.476Z,1500.00
2018-12-23T10:50:09.465Z,2108.00
2018-12-23T10:51:09.453Z,1432.00
2018-12-23T10:52:09.442Z,1256.00
2018-12-23T10:53:09.433Z,812.00
2018-12-23T10:54:09.420Z,820.00
2018-12-23T10:55:09.408Z,996.00
2018-12-23T10:56:09.397Z,1504.00
2018-12-23T10:57:09.386Z,1908.00
2018-12-23T10:58:09.377Z,2224.00
2018-12-23T10:59:09.363Z,3060.00
2018-12-23T11:00:09.353Z,2880.00
2018-12-23T11:01:09.341Z,2472.00
2018-12-23T11:02:13.645Z,1992.00
2018-12-23T11:03:09.320Z,1424.00
2018-12-23T11:04:09.307Z,1060.00
2018-12-23T11:05:09.297Z,880.00
2018-12-23T11:06:09.286Z,1196.00
2018-12-23T11:07:09.274Z,1684.00
2018-12-23T11:08:09.263Z,1928.00
2018-12-23T11:09:09.253Z,1836.00
2018-12-23T11:10:09.240Z,1576.00
2018-12-23T11:11:09.232Z,1644.00
2018-12-23T11:12:09.219Z,1696.00
2018-12-23T11:13:09.207Z,2652.00
2018-12-23T11:14:09.198Z,2848.00
2018-12-23T11:15:09.187Z,2028.00
2018-12-23T11:16:09.173Z,2416.00
2018-12-23T11:17:09.165Z,2976.00
2018-12-23T11:18:09.151Z,3184.00
2018-12-23T11:19:09.143Z,3652.00
2018-12-23T11:20:09.128Z,3692.00
2018-12-23T11:21:09.118Z,3364.00
2018-12-23T11:22:09.107Z,2780.00
2018-12-23T11:23:09.095Z,3192.00
2018-12-23T11:24:09.085Z,3284.00
2018-12-23T11:25:09.072Z,2428.00
2018-12-23T11:26:09.061Z,2828.00
2018-12-23T11:27:09.051Z,3360.00
2018-12-23T11:28:09.039Z,3312.00
2018-12-23T11:29:09.028Z,4152.00
2018-12-23T11:30:09.017Z,4276.00
2018-12-23T11:31:09.005Z,3756.00
2018-12-23T11:32:08.999Z,3292.00
2018-12-23T11:33:08.983Z,3352.00
2018-12-23T11:34:08.971Z,2400.00
2018-12-23T11:35:08.960Z,2512.00
2018-12-23T11:36:08.948Z,2104.00
2018-12-23T11:37:08.942Z,2428.00
2018-12-23T11:38:08.926Z,2504.00
2018-12-23T11:39:08.919Z,1972.00
2018-12-23T11:40:08.904Z,1968.00
2018-12-23T11:41:08.893Z,2320.00
2018-12-23T11:42:08.884Z,2312.00
2018-12-23T11:43:08.873Z,2272.00
2018-12-23T11:44:08.861Z,2216.00
2018-12-23T11:45:08.850Z,2412.00
2018-12-23T11:46:08.843Z,2260.00
2018-12-23T11:47:08.826Z,1988.00
2018-12-23T11:48:08.815Z,2096.00
2018-12-23T11:49:08.803Z,2220.00
2018-12-23T11:50:08.792Z,2352.00
2018-12-23T11:51:08.781Z,2112.00
2018-12-23T11:52:08.771Z,1800.00
2018-12-23T11:53:08.760Z,1624.00
2018-12-23T11:54:08.747Z,1732.00
2018-12-23T11:55:08.736Z,1676.00
2018-12-23T11:56:08.724Z,1992.00
2018-12-23T11:57:08.715Z,2236.00
2018-12-23T11:58:08.706Z,2040.00
2018-12-23T11:59:08.692Z,1976.00
2018-12-23T12:00:08.679Z,2136.00
2018-12-23T12:01:08.671Z,2092.00
2018-12-23T12:02:15.239Z,1768.00
2018-12-23T12:03:09.644Z,1720.00
2018-12-23T12:04:08.635Z,1836.00
2018-12-23T12:05:08.629Z,1844.00
2018-12-23T12:06:08.612Z,1784.00
2018-12-23T12:07:08.602Z,1652.00
2018-12-23T12:08:08.590Z,1384.00
2018-12-23T12:09:08.579Z,1412.00
2018-12-23T12:10:08.567Z,1508.00
2018-12-23T12:11:08.558Z,1788.00
2018-12-23T12:12:08.548Z,1672.00
2018-12-23T12:13:08.534Z,1776.00
2018-12-23T12:14:08.523Z,1820.00
2018-12-23T12:15:08.512Z,1588.00
2018-12-23T12:16:08.506Z,1680.00
2018-12-23T12:17:08.489Z,1808.00
2018-12-23T12:18:08.478Z,2096.00
2018-12-23T12:19:08.470Z,2284.00
2018-12-23T12:20:08.458Z,1912.00
2018-12-23T12:21:08.444Z,1612.00
2018-12-23T12:22:08.437Z,1884.00
2018-12-23T12:23:08.422Z,2040.00
2018-12-23T12:24:08.412Z,2060.00
2018-12-23T12:25:08.401Z,2192.00
2018-12-23T12:26:08.389Z,1920.00
2018-12-23T12:27:08.377Z,1444.00
2018-12-23T12:28:08.370Z,1320.00
2018-12-23T12:29:08.365Z,1308.00
2018-12-23T12:30:08.344Z,912.00
2018-12-23T12:31:08.332Z,920.00
2018-12-23T12:32:08.321Z,1148.00
2018-12-23T12:33:08.312Z,1160.00
2018-12-23T12:34:08.301Z,984.00
2018-12-23T12:35:08.288Z,1200.00
2018-12-23T12:36:08.277Z,1124.00
2018-12-23T12:37:08.266Z,832.00
2018-12-23T12:38:08.254Z,652.00
2018-12-23T12:39:08.246Z,668.00
2018-12-23T12:40:08.232Z,484.00
2018-12-23T12:41:08.225Z,580.00
2018-12-23T12:42:08.209Z,692.00
2018-12-23T12:43:08.200Z,616.00
2018-12-23T12:44:08.188Z,692.00
2018-12-23T12:45:08.176Z,892.00
2018-12-23T12:46:08.166Z,584.00
2018-12-23T12:47:08.158Z,580.00
2018-12-23T12:48:08.152Z,608.00
2018-12-23T12:49:08.132Z,612.00
2018-12-23T12:50:08.126Z,568.00
2018-12-23T12:51:08.110Z,560.00